sensor_id;sensor_type;location;lat;lon;timestamp;P1;durP1;ratioP1;P2;durP2;ratioP2
20890;SDS011;10605;52.968;8.844;2024-01-30T00:01:45;31.85;;;23.70;;
20890;SDS011;10605;52.968;8.844;2024-01-30T00:04:11;30.48;;;24.20;;
20890;SDS011;10605;52.968;8.844;2024-01-30T00:06:36;30.83;;;23.70;;
20890;SDS011;10605;52.968;8.844;2024-01-30T00:09:02;31.00;;;24.63;;
20890;SDS011;10605;52.968;8.844;2024-01-30T00:11:27;32.63;;;24.40;;
20890;SDS011;10605;52.968;8.844;2024-01-30T00:13:54;37.13;;;23.70;;
20890;SDS011;10605;52.968;8.844;2024-01-30T00:16:23;29.75;;;23.63;;
20890;SDS011;10605;52.968;8.844;2024-01-30T00:18:52;30.00;;;23.63;;
20890;SDS011;10605;52.968;8.844;2024-01-30T00:21:18;29.10;;;22.02;;
20890;SDS011;10605;52.968;8.844;2024-01-30T00:23:45;28.63;;;23.05;;
20890;SDS011;10605;52.968;8.844;2024-01-30T00:26:10;28.58;;;22.10;;
20890;SDS011;10605;52.968;8.844;2024-01-30T00:28:40;31.45;;;23.02;;
20890;SDS011;10605;52.968;8.844;2024-01-30T00:31:06;32.00;;;22.67;;
20890;SDS011;10605;52.968;8.844;2024-01-30T00:33:32;29.67;;;23.13;;
20890;SDS011;10605;52.968;8.844;2024-01-30T00:35:57;32.17;;;22.90;;
20890;SDS011;10605;52.968;8.844;2024-01-30T00:38:23;26.25;;;21.55;;
20890;SDS011;10605;52.968;8.844;2024-01-30T00:40:49;28.90;;;21.63;;
20890;SDS011;10605;52.968;8.844;2024-01-30T00:43:15;30.38;;;22.70;;
20890;SDS011;10605;52.968;8.844;2024-01-30T00:45:41;26.65;;;21.88;;
20890;SDS011;10605;52.968;8.844;2024-01-30T00:48:08;27.20;;;22.13;;
20890;SDS011;10605;52.968;8.844;2024-01-30T00:50:33;32.53;;;22.48;;
20890;SDS011;10605;52.968;8.844;2024-01-30T00:52:59;28.02;;;22.15;;
20890;SDS011;10605;52.968;8.844;2024-01-30T00:55:25;34.00;;;23.45;;
20890;SDS011;10605;52.968;8.844;2024-01-30T00:57:50;34.17;;;24.05;;
20890;SDS011;10605;52.968;8.844;2024-01-30T01:00:16;35.60;;;25.23;;
20890;SDS011;10605;52.968;8.844;2024-01-30T01:02:42;32.78;;;24.90;;
20890;SDS011;10605;52.968;8.844;2024-01-30T01:05:08;36.30;;;24.33;;
20890;SDS011;10605;52.968;8.844;2024-01-30T01:07:34;31.52;;;24.17;;
20890;SDS011;10605;52.968;8.844;2024-01-30T01:10:00;33.80;;;24.15;;
20890;SDS011;10605;52.968;8.844;2024-01-30T01:12:25;36.03;;;24.42;;
20890;SDS011;10605;52.968;8.844;2024-01-30T01:14:51;29.45;;;22.52;;
20890;SDS011;10605;52.968;8.844;2024-01-30T01:17:16;30.95;;;24.00;;
20890;SDS011;10605;52.968;8.844;2024-01-30T01:19:43;31.10;;;23.55;;
20890;SDS011;10605;52.968;8.844;2024-01-30T01:22:09;31.05;;;23.80;;
20890;SDS011;10605;52.968;8.844;2024-01-30T01:24:35;36.20;;;24.25;;
20890;SDS011;10605;52.968;8.844;2024-01-30T01:27:01;33.83;;;24.98;;
20890;SDS011;10605;52.968;8.844;2024-01-30T01:29:27;39.47;;;27.65;;
20890;SDS011;10605;52.968;8.844;2024-01-30T01:31:56;42.92;;;28.63;;
20890;SDS011;10605;52.968;8.844;2024-01-30T01:34:22;43.33;;;29.23;;
20890;SDS011;10605;52.968;8.844;2024-01-30T01:36:51;43.25;;;29.27;;
20890;SDS011;10605;52.968;8.844;2024-01-30T01:39:17;47.28;;;31.70;;
20890;SDS011;10605;52.968;8.844;2024-01-30T01:41:43;50.78;;;33.22;;
20890;SDS011;10605;52.968;8.844;2024-01-30T01:44:08;52.50;;;34.15;;
20890;SDS011;10605;52.968;8.844;2024-01-30T01:46:35;55.58;;;36.72;;
20890;SDS011;10605;52.968;8.844;2024-01-30T01:49:02;56.50;;;36.30;;
20890;SDS011;10605;52.968;8.844;2024-01-30T01:51:29;54.40;;;36.17;;
20890;SDS011;10605;52.968;8.844;2024-01-30T01:53:56;54.55;;;35.75;;
20890;SDS011;10605;52.968;8.844;2024-01-30T01:56:23;52.58;;;35.95;;
20890;SDS011;10605;52.968;8.844;2024-01-30T01:58:50;49.78;;;33.75;;
20890;SDS011;10605;52.968;8.844;2024-01-30T02:01:19;56.20;;;35.15;;
20890;SDS011;10605;52.968;8.844;2024-01-30T02:03:46;49.25;;;35.05;;
20890;SDS011;10605;52.968;8.844;2024-01-30T02:06:13;48.67;;;34.55;;
20890;SDS011;10605;52.968;8.844;2024-01-30T02:08:41;50.03;;;33.78;;
20890;SDS011;10605;52.968;8.844;2024-01-30T02:11:07;44.58;;;30.35;;
20890;SDS011;10605;52.968;8.844;2024-01-30T02:13:33;42.95;;;31.10;;
20890;SDS011;10605;52.968;8.844;2024-01-30T02:15:59;42.85;;;30.67;;
20890;SDS011;10605;52.968;8.844;2024-01-30T02:18:26;42.10;;;29.73;;
20890;SDS011;10605;52.968;8.844;2024-01-30T02:20:53;39.97;;;29.17;;
20890;SDS011;10605;52.968;8.844;2024-01-30T02:23:21;38.30;;;28.20;;
20890;SDS011;10605;52.968;8.844;2024-01-30T02:25:50;38.10;;;27.10;;
20890;SDS011;10605;52.968;8.844;2024-01-30T02:28:18;35.78;;;26.58;;
20890;SDS011;10605;52.968;8.844;2024-01-30T02:30:44;36.25;;;26.95;;
20890;SDS011;10605;52.968;8.844;2024-01-30T02:33:11;37.13;;;27.52;;
20890;SDS011;10605;52.968;8.844;2024-01-30T02:35:39;34.42;;;26.05;;
20890;SDS011;10605;52.968;8.844;2024-01-30T02:38:05;39.88;;;27.17;;
20890;SDS011;10605;52.968;8.844;2024-01-30T02:40:33;38.42;;;26.40;;
20890;SDS011;10605;52.968;8.844;2024-01-30T02:42:59;36.67;;;26.30;;
20890;SDS011;10605;52.968;8.844;2024-01-30T02:45:26;38.53;;;25.55;;
20890;SDS011;10605;52.968;8.844;2024-01-30T02:47:52;38.17;;;27.10;;
20890;SDS011;10605;52.968;8.844;2024-01-30T02:50:17;40.25;;;27.75;;
20890;SDS011;10605;52.968;8.844;2024-01-30T02:52:43;34.88;;;27.45;;
20890;SDS011;10605;52.968;8.844;2024-01-30T02:55:09;35.78;;;25.73;;
20890;SDS011;10605;52.968;8.844;2024-01-30T02:57:35;38.13;;;26.20;;
20890;SDS011;10605;52.968;8.844;2024-01-30T03:00:00;39.28;;;28.85;;
20890;SDS011;10605;52.968;8.844;2024-01-30T03:02:26;37.33;;;27.42;;
20890;SDS011;10605;52.968;8.844;2024-01-30T03:04:52;35.35;;;25.98;;
20890;SDS011;10605;52.968;8.844;2024-01-30T03:07:17;35.30;;;25.00;;
20890;SDS011;10605;52.968;8.844;2024-01-30T03:09:43;33.58;;;24.48;;
20890;SDS011;10605;52.968;8.844;2024-01-30T03:12:09;28.02;;;22.55;;
20890;SDS011;10605;52.968;8.844;2024-01-30T03:14:35;30.27;;;23.33;;
20890;SDS011;10605;52.968;8.844;2024-01-30T03:17:01;27.05;;;22.10;;
20890;SDS011;10605;52.968;8.844;2024-01-30T03:19:29;29.23;;;21.77;;
20890;SDS011;10605;52.968;8.844;2024-01-30T03:21:55;30.17;;;21.50;;
20890;SDS011;10605;52.968;8.844;2024-01-30T03:24:20;29.40;;;22.50;;
20890;SDS011;10605;52.968;8.844;2024-01-30T03:26:46;31.67;;;22.77;;
20890;SDS011;10605;52.968;8.844;2024-01-30T03:29:11;32.70;;;23.77;;
20890;SDS011;10605;52.968;8.844;2024-01-30T03:31:38;31.17;;;22.70;;
20890;SDS011;10605;52.968;8.844;2024-01-30T03:34:04;33.42;;;23.25;;
20890;SDS011;10605;52.968;8.844;2024-01-30T03:36:30;31.27;;;24.48;;
20890;SDS011;10605;52.968;8.844;2024-01-30T03:38:58;37.58;;;25.20;;
20890;SDS011;10605;52.968;8.844;2024-01-30T03:41:23;36.40;;;26.17;;
20890;SDS011;10605;52.968;8.844;2024-01-30T03:43:50;37.25;;;26.67;;
20890;SDS011;10605;52.968;8.844;2024-01-30T03:46:15;34.20;;;25.42;;
20890;SDS011;10605;52.968;8.844;2024-01-30T03:48:41;38.90;;;27.58;;
20890;SDS011;10605;52.968;8.844;2024-01-30T03:51:07;45.17;;;29.45;;
20890;SDS011;10605;52.968;8.844;2024-01-30T03:53:32;42.65;;;28.75;;
20890;SDS011;10605;52.968;8.844;2024-01-30T03:55:58;39.42;;;28.38;;
20890;SDS011;10605;52.968;8.844;2024-01-30T03:58:23;39.95;;;28.52;;
20890;SDS011;10605;52.968;8.844;2024-01-30T04:00:49;43.50;;;28.60;;
20890;SDS011;10605;52.968;8.844;2024-01-30T04:03:17;40.72;;;27.77;;
20890;SDS011;10605;52.968;8.844;2024-01-30T04:05:43;39.85;;;26.83;;
20890;SDS011;10605;52.968;8.844;2024-01-30T04:08:09;44.13;;;29.40;;
20890;SDS011;10605;52.968;8.844;2024-01-30T04:10:34;42.85;;;29.55;;
20890;SDS011;10605;52.968;8.844;2024-01-30T04:13:00;46.38;;;29.52;;
20890;SDS011;10605;52.968;8.844;2024-01-30T04:15:26;43.38;;;29.30;;
20890;SDS011;10605;52.968;8.844;2024-01-30T04:17:56;42.15;;;28.98;;
20890;SDS011;10605;52.968;8.844;2024-01-30T04:20:23;40.47;;;27.70;;
20890;SDS011;10605;52.968;8.844;2024-01-30T04:22:48;45.28;;;31.17;;
20890;SDS011;10605;52.968;8.844;2024-01-30T04:25:14;43.17;;;28.58;;
20890;SDS011;10605;52.968;8.844;2024-01-30T04:27:40;39.63;;;28.15;;
20890;SDS011;10605;52.968;8.844;2024-01-30T04:30:06;38.08;;;28.08;;
20890;SDS011;10605;52.968;8.844;2024-01-30T04:32:32;38.78;;;27.75;;
20890;SDS011;10605;52.968;8.844;2024-01-30T04:34:57;32.85;;;25.85;;
20890;SDS011;10605;52.968;8.844;2024-01-30T04:37:23;35.03;;;24.30;;
20890;SDS011;10605;52.968;8.844;2024-01-30T04:39:49;35.70;;;24.33;;
20890;SDS011;10605;52.968;8.844;2024-01-30T04:42:15;30.45;;;23.33;;
20890;SDS011;10605;52.968;8.844;2024-01-30T04:44:41;27.98;;;23.38;;
20890;SDS011;10605;52.968;8.844;2024-01-30T04:47:07;28.42;;;22.77;;
20890;SDS011;10605;52.968;8.844;2024-01-30T04:49:34;31.55;;;23.60;;
20890;SDS011;10605;52.968;8.844;2024-01-30T04:52:00;30.98;;;24.42;;
20890;SDS011;10605;52.968;8.844;2024-01-30T04:54:26;27.77;;;21.85;;
20890;SDS011;10605;52.968;8.844;2024-01-30T04:56:51;32.40;;;23.50;;
20890;SDS011;10605;52.968;8.844;2024-01-30T04:59:17;29.55;;;22.08;;
20890;SDS011;10605;52.968;8.844;2024-01-30T05:01:43;24.52;;;21.75;;
20890;SDS011;10605;52.968;8.844;2024-01-30T05:04:08;31.55;;;22.13;;
20890;SDS011;10605;52.968;8.844;2024-01-30T05:06:34;29.23;;;22.45;;
20890;SDS011;10605;52.968;8.844;2024-01-30T05:09:00;30.45;;;22.30;;
20890;SDS011;10605;52.968;8.844;2024-01-30T05:11:26;28.80;;;22.02;;
20890;SDS011;10605;52.968;8.844;2024-01-30T05:13:51;28.13;;;23.88;;
20890;SDS011;10605;52.968;8.844;2024-01-30T05:16:17;30.17;;;22.65;;
20890;SDS011;10605;52.968;8.844;2024-01-30T05:18:43;30.77;;;22.50;;
20890;SDS011;10605;52.968;8.844;2024-01-30T05:21:09;26.98;;;21.63;;
20890;SDS011;10605;52.968;8.844;2024-01-30T05:23:35;34.03;;;22.75;;
20890;SDS011;10605;52.968;8.844;2024-01-30T05:26:01;28.38;;;21.13;;
20890;SDS011;10605;52.968;8.844;2024-01-30T05:28:27;30.58;;;23.08;;
20890;SDS011;10605;52.968;8.844;2024-01-30T05:30:56;31.95;;;23.60;;
20890;SDS011;10605;52.968;8.844;2024-01-30T05:33:22;31.73;;;24.10;;
20890;SDS011;10605;52.968;8.844;2024-01-30T05:35:47;34.03;;;25.50;;
20890;SDS011;10605;52.968;8.844;2024-01-30T05:38:13;36.67;;;26.85;;
20890;SDS011;10605;52.968;8.844;2024-01-30T05:40:40;36.47;;;26.40;;
20890;SDS011;10605;52.968;8.844;2024-01-30T05:43:06;36.08;;;26.60;;
20890;SDS011;10605;52.968;8.844;2024-01-30T05:45:32;38.83;;;26.85;;
20890;SDS011;10605;52.968;8.844;2024-01-30T05:48:00;39.15;;;26.73;;
20890;SDS011;10605;52.968;8.844;2024-01-30T05:50:26;33.63;;;27.05;;
20890;SDS011;10605;52.968;8.844;2024-01-30T05:52:52;42.40;;;27.90;;
20890;SDS011;10605;52.968;8.844;2024-01-30T05:55:18;34.00;;;27.13;;
20890;SDS011;10605;52.968;8.844;2024-01-30T05:57:44;36.92;;;27.00;;
20890;SDS011;10605;52.968;8.844;2024-01-30T06:00:09;34.30;;;26.65;;
20890;SDS011;10605;52.968;8.844;2024-01-30T06:02:35;38.25;;;26.92;;
20890;SDS011;10605;52.968;8.844;2024-01-30T06:05:01;35.72;;;26.27;;
20890;SDS011;10605;52.968;8.844;2024-01-30T06:07:27;37.83;;;27.48;;
20890;SDS011;10605;52.968;8.844;2024-01-30T06:09:53;37.10;;;27.77;;
20890;SDS011;10605;52.968;8.844;2024-01-30T06:12:18;35.28;;;27.00;;
20890;SDS011;10605;52.968;8.844;2024-01-30T06:14:44;44.20;;;28.88;;
20890;SDS011;10605;52.968;8.844;2024-01-30T06:17:09;36.60;;;27.55;;
20890;SDS011;10605;52.968;8.844;2024-01-30T06:19:36;40.25;;;29.27;;
20890;SDS011;10605;52.968;8.844;2024-01-30T06:22:06;37.38;;;27.33;;
20890;SDS011;10605;52.968;8.844;2024-01-30T06:24:31;32.00;;;25.95;;
20890;SDS011;10605;52.968;8.844;2024-01-30T06:26:58;34.35;;;25.45;;
20890;SDS011;10605;52.968;8.844;2024-01-30T06:29:24;36.60;;;26.45;;
20890;SDS011;10605;52.968;8.844;2024-01-30T06:31:51;42.15;;;27.85;;
20890;SDS011;10605;52.968;8.844;2024-01-30T06:34:17;41.17;;;29.10;;
20890;SDS011;10605;52.968;8.844;2024-01-30T06:36:43;41.90;;;28.65;;
20890;SDS011;10605;52.968;8.844;2024-01-30T06:39:08;39.92;;;30.35;;
20890;SDS011;10605;52.968;8.844;2024-01-30T06:41:34;42.65;;;30.33;;
20890;SDS011;10605;52.968;8.844;2024-01-30T06:44:01;43.80;;;31.42;;
20890;SDS011;10605;52.968;8.844;2024-01-30T06:46:28;46.33;;;32.35;;
20890;SDS011;10605;52.968;8.844;2024-01-30T06:48:53;48.08;;;31.38;;
20890;SDS011;10605;52.968;8.844;2024-01-30T06:51:19;50.80;;;32.45;;
20890;SDS011;10605;52.968;8.844;2024-01-30T06:53:45;46.15;;;32.88;;
20890;SDS011;10605;52.968;8.844;2024-01-30T06:56:10;52.80;;;33.70;;
20890;SDS011;10605;52.968;8.844;2024-01-30T06:58:36;58.88;;;36.58;;
20890;SDS011;10605;52.968;8.844;2024-01-30T07:01:02;55.58;;;36.58;;
20890;SDS011;10605;52.968;8.844;2024-01-30T07:03:28;57.83;;;36.67;;
20890;SDS011;10605;52.968;8.844;2024-01-30T07:05:53;56.55;;;36.53;;
20890;SDS011;10605;52.968;8.844;2024-01-30T07:08:19;57.97;;;37.30;;
20890;SDS011;10605;52.968;8.844;2024-01-30T07:10:45;61.83;;;35.10;;
20890;SDS011;10605;52.968;8.844;2024-01-30T07:13:11;57.28;;;35.50;;
20890;SDS011;10605;52.968;8.844;2024-01-30T07:15:37;54.20;;;35.63;;
20890;SDS011;10605;52.968;8.844;2024-01-30T07:18:03;52.10;;;35.85;;
20890;SDS011;10605;52.968;8.844;2024-01-30T07:20:29;57.75;;;36.50;;
20890;SDS011;10605;52.968;8.844;2024-01-30T07:22:57;54.17;;;35.45;;
20890;SDS011;10605;52.968;8.844;2024-01-30T07:25:23;53.72;;;35.50;;
20890;SDS011;10605;52.968;8.844;2024-01-30T07:27:52;58.47;;;36.08;;
20890;SDS011;10605;52.968;8.844;2024-01-30T07:30:18;53.65;;;36.80;;
20890;SDS011;10605;52.968;8.844;2024-01-30T07:32:46;59.05;;;38.17;;
20890;SDS011;10605;52.968;8.844;2024-01-30T07:35:13;60.53;;;35.72;;
20890;SDS011;10605;52.968;8.844;2024-01-30T07:37:39;51.58;;;34.03;;
20890;SDS011;10605;52.968;8.844;2024-01-30T07:40:06;52.10;;;34.85;;
20890;SDS011;10605;52.968;8.844;2024-01-30T07:42:32;51.05;;;35.20;;
20890;SDS011;10605;52.968;8.844;2024-01-30T07:44:58;53.42;;;33.10;;
20890;SDS011;10605;52.968;8.844;2024-01-30T07:47:28;53.17;;;34.05;;
20890;SDS011;10605;52.968;8.844;2024-01-30T07:49:53;49.53;;;32.42;;
20890;SDS011;10605;52.968;8.844;2024-01-30T07:52:19;46.10;;;32.22;;
20890;SDS011;10605;52.968;8.844;2024-01-30T07:54:45;42.63;;;30.60;;
20890;SDS011;10605;52.968;8.844;2024-01-30T07:57:10;40.72;;;29.98;;
20890;SDS011;10605;52.968;8.844;2024-01-30T07:59:36;44.35;;;30.77;;
20890;SDS011;10605;52.968;8.844;2024-01-30T08:02:02;43.40;;;29.38;;
20890;SDS011;10605;52.968;8.844;2024-01-30T08:04:27;47.30;;;31.50;;
20890;SDS011;10605;52.968;8.844;2024-01-30T08:06:53;48.92;;;31.35;;
20890;SDS011;10605;52.968;8.844;2024-01-30T08:09:19;47.28;;;31.25;;
20890;SDS011;10605;52.968;8.844;2024-01-30T08:11:44;48.15;;;31.83;;
20890;SDS011;10605;52.968;8.844;2024-01-30T08:14:10;44.95;;;31.38;;
20890;SDS011;10605;52.968;8.844;2024-01-30T08:16:35;42.85;;;29.85;;
20890;SDS011;10605;52.968;8.844;2024-01-30T08:19:01;41.28;;;29.35;;
20890;SDS011;10605;52.968;8.844;2024-01-30T08:21:28;42.65;;;27.92;;
20890;SDS011;10605;52.968;8.844;2024-01-30T08:23:53;34.55;;;26.60;;
20890;SDS011;10605;52.968;8.844;2024-01-30T08:26:19;36.30;;;26.67;;
20890;SDS011;10605;52.968;8.844;2024-01-30T08:28:44;39.10;;;26.08;;
20890;SDS011;10605;52.968;8.844;2024-01-30T08:31:10;31.42;;;23.77;;
20890;SDS011;10605;52.968;8.844;2024-01-30T08:33:37;35.80;;;24.02;;
20890;SDS011;10605;52.968;8.844;2024-01-30T08:36:02;25.90;;;21.35;;
20890;SDS011;10605;52.968;8.844;2024-01-30T08:38:31;28.27;;;21.40;;
20890;SDS011;10605;52.968;8.844;2024-01-30T08:40:56;29.48;;;21.15;;
20890;SDS011;10605;52.968;8.844;2024-01-30T08:43:22;32.03;;;21.00;;
20890;SDS011;10605;52.968;8.844;2024-01-30T08:45:47;25.98;;;19.77;;
20890;SDS011;10605;52.968;8.844;2024-01-30T08:48:13;25.33;;;18.58;;
20890;SDS011;10605;52.968;8.844;2024-01-30T08:50:39;30.80;;;19.40;;
20890;SDS011;10605;52.968;8.844;2024-01-30T08:53:04;24.83;;;18.35;;
20890;SDS011;10605;52.968;8.844;2024-01-30T08:55:30;20.63;;;17.40;;
20890;SDS011;10605;52.968;8.844;2024-01-30T08:57:56;19.67;;;16.73;;
20890;SDS011;10605;52.968;8.844;2024-01-30T09:00:21;25.35;;;16.38;;
20890;SDS011;10605;52.968;8.844;2024-01-30T09:02:47;21.65;;;16.50;;
20890;SDS011;10605;52.968;8.844;2024-01-30T09:05:13;18.42;;;15.30;;
20890;SDS011;10605;52.968;8.844;2024-01-30T09:07:39;25.60;;;15.98;;
20890;SDS011;10605;52.968;8.844;2024-01-30T09:10:05;24.30;;;15.90;;
20890;SDS011;10605;52.968;8.844;2024-01-30T09:12:31;17.52;;;14.88;;
20890;SDS011;10605;52.968;8.844;2024-01-30T09:14:56;18.88;;;14.50;;
20890;SDS011;10605;52.968;8.844;2024-01-30T09:17:22;17.60;;;13.90;;
20890;SDS011;10605;52.968;8.844;2024-01-30T09:19:48;19.88;;;14.52;;
20890;SDS011;10605;52.968;8.844;2024-01-30T09:22:13;15.85;;;13.82;;
20890;SDS011;10605;52.968;8.844;2024-01-30T09:24:39;16.80;;;14.48;;
20890;SDS011;10605;52.968;8.844;2024-01-30T09:27:05;16.10;;;12.93;;
20890;SDS011;10605;52.968;8.844;2024-01-30T09:29:31;16.15;;;14.35;;
20890;SDS011;10605;52.968;8.844;2024-01-30T09:31:59;15.48;;;13.63;;
20890;SDS011;10605;52.968;8.844;2024-01-30T09:34:25;16.25;;;12.13;;
20890;SDS011;10605;52.968;8.844;2024-01-30T09:36:50;16.35;;;13.23;;
20890;SDS011;10605;52.968;8.844;2024-01-30T09:39:16;14.18;;;12.77;;
20890;SDS011;10605;52.968;8.844;2024-01-30T09:41:46;17.05;;;12.95;;
20890;SDS011;10605;52.968;8.844;2024-01-30T09:44:15;13.32;;;11.93;;
20890;SDS011;10605;52.968;8.844;2024-01-30T09:46:42;14.63;;;12.63;;
20890;SDS011;10605;52.968;8.844;2024-01-30T09:49:11;20.70;;;13.77;;
20890;SDS011;10605;52.968;8.844;2024-01-30T09:51:37;17.13;;;12.15;;
20890;SDS011;10605;52.968;8.844;2024-01-30T09:54:03;14.48;;;11.88;;
20890;SDS011;10605;52.968;8.844;2024-01-30T09:56:38;13.90;;;11.50;;
20890;SDS011;10605;52.968;8.844;2024-01-30T09:59:07;14.52;;;11.65;;
20890;SDS011;10605;52.968;8.844;2024-01-30T10:01:34;14.48;;;11.43;;
20890;SDS011;10605;52.968;8.844;2024-01-30T10:04:01;14.43;;;11.20;;
20890;SDS011;10605;52.968;8.844;2024-01-30T10:06:27;12.80;;;11.50;;
20890;SDS011;10605;52.968;8.844;2024-01-30T10:08:53;15.35;;;12.13;;
20890;SDS011;10605;52.968;8.844;2024-01-30T10:11:19;14.18;;;11.20;;
20890;SDS011;10605;52.968;8.844;2024-01-30T10:13:45;12.48;;;11.32;;
20890;SDS011;10605;52.968;8.844;2024-01-30T10:16:13;13.90;;;11.60;;
20890;SDS011;10605;52.968;8.844;2024-01-30T10:18:40;13.73;;;11.07;;
20890;SDS011;10605;52.968;8.844;2024-01-30T10:21:06;16.42;;;11.85;;
20890;SDS011;10605;52.968;8.844;2024-01-30T10:23:33;14.55;;;11.25;;
20890;SDS011;10605;52.968;8.844;2024-01-30T10:25:59;14.18;;;11.38;;
20890;SDS011;10605;52.968;8.844;2024-01-30T10:28:27;14.40;;;11.15;;
20890;SDS011;10605;52.968;8.844;2024-01-30T10:30:58;13.55;;;11.25;;
20890;SDS011;10605;52.968;8.844;2024-01-30T10:33:25;13.70;;;11.40;;
20890;SDS011;10605;52.968;8.844;2024-01-30T10:35:53;15.82;;;11.00;;
20890;SDS011;10605;52.968;8.844;2024-01-30T10:38:25;18.10;;;11.35;;
20890;SDS011;10605;52.968;8.844;2024-01-30T10:40:59;13.02;;;11.23;;
20890;SDS011;10605;52.968;8.844;2024-01-30T10:43:33;16.95;;;12.38;;
20890;SDS011;10605;52.968;8.844;2024-01-30T10:46:06;15.10;;;11.63;;
20890;SDS011;10605;52.968;8.844;2024-01-30T10:48:43;15.00;;;11.02;;
20890;SDS011;10605;52.968;8.844;2024-01-30T10:51:22;15.95;;;11.27;;
20890;SDS011;10605;52.968;8.844;2024-01-30T10:53:48;12.40;;;10.65;;
20890;SDS011;10605;52.968;8.844;2024-01-30T10:56:16;15.02;;;11.93;;
20890;SDS011;10605;52.968;8.844;2024-01-30T10:58:42;11.55;;;10.32;;
20890;SDS011;10605;52.968;8.844;2024-01-30T11:01:08;12.65;;;11.18;;
20890;SDS011;10605;52.968;8.844;2024-01-30T11:03:34;13.48;;;10.68;;
20890;SDS011;10605;52.968;8.844;2024-01-30T11:06:01;14.60;;;10.32;;
20890;SDS011;10605;52.968;8.844;2024-01-30T11:08:28;14.88;;;10.20;;
20890;SDS011;10605;52.968;8.844;2024-01-30T11:10:57;12.85;;;10.27;;
20890;SDS011;10605;52.968;8.844;2024-01-30T11:13:29;16.42;;;10.00;;
20890;SDS011;10605;52.968;8.844;2024-01-30T11:15:55;12.23;;;9.57;;
20890;SDS011;10605;52.968;8.844;2024-01-30T11:18:29;10.50;;;9.52;;
20890;SDS011;10605;52.968;8.844;2024-01-30T11:21:01;10.80;;;9.50;;
20890;SDS011;10605;52.968;8.844;2024-01-30T11:23:27;10.63;;;9.50;;
20890;SDS011;10605;52.968;8.844;2024-01-30T11:25:53;11.45;;;9.25;;
20890;SDS011;10605;52.968;8.844;2024-01-30T11:28:20;10.43;;;9.43;;
20890;SDS011;10605;52.968;8.844;2024-01-30T11:30:47;10.77;;;9.70;;
20890;SDS011;10605;52.968;8.844;2024-01-30T11:33:16;11.65;;;10.45;;
20890;SDS011;10605;52.968;8.844;2024-01-30T11:35:54;12.27;;;10.02;;
20890;SDS011;10605;52.968;8.844;2024-01-30T11:38:23;17.40;;;9.98;;
20890;SDS011;10605;52.968;8.844;2024-01-30T11:40:51;10.55;;;9.23;;
20890;SDS011;10605;52.968;8.844;2024-01-30T11:43:19;11.63;;;9.27;;
20890;SDS011;10605;52.968;8.844;2024-01-30T11:45:44;13.15;;;9.40;;
20890;SDS011;10605;52.968;8.844;2024-01-30T11:48:11;12.95;;;10.20;;
20890;SDS011;10605;52.968;8.844;2024-01-30T11:50:37;13.70;;;9.65;;
20890;SDS011;10605;52.968;8.844;2024-01-30T11:53:04;13.60;;;9.60;;
20890;SDS011;10605;52.968;8.844;2024-01-30T11:55:30;11.75;;;9.32;;
20890;SDS011;10605;52.968;8.844;2024-01-30T11:57:56;10.93;;;9.23;;
20890;SDS011;10605;52.968;8.844;2024-01-30T12:00:23;11.05;;;9.25;;
20890;SDS011;10605;52.968;8.844;2024-01-30T12:02:50;11.98;;;9.88;;
20890;SDS011;10605;52.968;8.844;2024-01-30T12:05:20;9.90;;;8.95;;
20890;SDS011;10605;52.968;8.844;2024-01-30T12:07:50;13.55;;;9.27;;
20890;SDS011;10605;52.968;8.844;2024-01-30T12:10:16;11.70;;;9.35;;
20890;SDS011;10605;52.968;8.844;2024-01-30T12:12:44;17.42;;;9.73;;
20890;SDS011;10605;52.968;8.844;2024-01-30T12:15:12;14.13;;;10.45;;
20890;SDS011;10605;52.968;8.844;2024-01-30T12:17:39;10.95;;;9.82;;
20890;SDS011;10605;52.968;8.844;2024-01-30T12:20:05;13.13;;;10.23;;
20890;SDS011;10605;52.968;8.844;2024-01-30T12:22:38;12.68;;;10.20;;
20890;SDS011;10605;52.968;8.844;2024-01-30T12:25:09;18.98;;;10.25;;
20890;SDS011;10605;52.968;8.844;2024-01-30T12:27:42;11.52;;;10.50;;
20890;SDS011;10605;52.968;8.844;2024-01-30T12:30:10;13.50;;;9.85;;
20890;SDS011;10605;52.968;8.844;2024-01-30T12:32:42;13.90;;;10.25;;
20890;SDS011;10605;52.968;8.844;2024-01-30T12:35:14;13.45;;;10.18;;
20890;SDS011;10605;52.968;8.844;2024-01-30T12:37:42;13.88;;;10.50;;
20890;SDS011;10605;52.968;8.844;2024-01-30T12:40:09;14.57;;;10.63;;
20890;SDS011;10605;52.968;8.844;2024-01-30T12:42:39;12.15;;;9.23;;
20890;SDS011;10605;52.968;8.844;2024-01-30T12:45:11;15.90;;;10.25;;
20890;SDS011;10605;52.968;8.844;2024-01-30T12:47:36;11.50;;;9.88;;
20890;SDS011;10605;52.968;8.844;2024-01-30T12:50:05;15.63;;;9.20;;
20890;SDS011;10605;52.968;8.844;2024-01-30T12:52:31;13.95;;;9.95;;
20890;SDS011;10605;52.968;8.844;2024-01-30T12:54:56;13.90;;;9.73;;
20890;SDS011;10605;52.968;8.844;2024-01-30T12:57:22;10.70;;;9.60;;
20890;SDS011;10605;52.968;8.844;2024-01-30T12:59:48;13.45;;;10.15;;
20890;SDS011;10605;52.968;8.844;2024-01-30T13:02:14;16.05;;;10.40;;
20890;SDS011;10605;52.968;8.844;2024-01-30T13:04:40;12.90;;;9.77;;
20890;SDS011;10605;52.968;8.844;2024-01-30T13:07:06;12.13;;;9.80;;
20890;SDS011;10605;52.968;8.844;2024-01-30T13:09:31;13.30;;;9.77;;
20890;SDS011;10605;52.968;8.844;2024-01-30T13:11:57;16.90;;;9.20;;
20890;SDS011;10605;52.968;8.844;2024-01-30T13:14:26;15.32;;;10.25;;
20890;SDS011;10605;52.968;8.844;2024-01-30T13:16:51;12.68;;;9.80;;
20890;SDS011;10605;52.968;8.844;2024-01-30T13:19:17;14.95;;;9.93;;
20890;SDS011;10605;52.968;8.844;2024-01-30T13:21:43;16.63;;;9.90;;
20890;SDS011;10605;52.968;8.844;2024-01-30T13:24:09;13.30;;;10.30;;
20890;SDS011;10605;52.968;8.844;2024-01-30T13:26:35;17.83;;;10.60;;
20890;SDS011;10605;52.968;8.844;2024-01-30T13:29:01;12.68;;;9.60;;
20890;SDS011;10605;52.968;8.844;2024-01-30T13:31:26;17.58;;;10.82;;
20890;SDS011;10605;52.968;8.844;2024-01-30T13:33:53;22.65;;;11.75;;
20890;SDS011;10605;52.968;8.844;2024-01-30T13:36:22;19.88;;;10.23;;
20890;SDS011;10605;52.968;8.844;2024-01-30T13:38:48;20.67;;;10.88;;
20890;SDS011;10605;52.968;8.844;2024-01-30T13:41:13;15.63;;;10.57;;
20890;SDS011;10605;52.968;8.844;2024-01-30T13:43:39;16.05;;;10.52;;
20890;SDS011;10605;52.968;8.844;2024-01-30T13:46:07;15.35;;;10.38;;
20890;SDS011;10605;52.968;8.844;2024-01-30T13:48:33;21.02;;;11.23;;
20890;SDS011;10605;52.968;8.844;2024-01-30T13:50:59;20.15;;;11.15;;
20890;SDS011;10605;52.968;8.844;2024-01-30T13:53:24;19.73;;;11.38;;
20890;SDS011;10605;52.968;8.844;2024-01-30T13:55:50;13.30;;;10.57;;
20890;SDS011;10605;52.968;8.844;2024-01-30T13:58:16;21.27;;;11.00;;
20890;SDS011;10605;52.968;8.844;2024-01-30T14:00:41;13.73;;;11.25;;
20890;SDS011;10605;52.968;8.844;2024-01-30T14:03:07;14.68;;;10.70;;
20890;SDS011;10605;52.968;8.844;2024-01-30T14:05:33;13.55;;;11.63;;
20890;SDS011;10605;52.968;8.844;2024-01-30T14:07:58;20.05;;;10.77;;
20890;SDS011;10605;52.968;8.844;2024-01-30T14:10:25;18.70;;;10.40;;
20890;SDS011;10605;52.968;8.844;2024-01-30T14:12:51;16.88;;;12.07;;
20890;SDS011;10605;52.968;8.844;2024-01-30T14:15:36;12.68;;;10.07;;
20890;SDS011;10605;52.968;8.844;2024-01-30T14:18:35;19.35;;;11.05;;
20890;SDS011;10605;52.968;8.844;2024-01-30T14:27:54;13.63;;;10.80;;